createdAt,value
2023-02-27T00:01:26.253Z,2.80
2023-02-27T00:06:29.968Z,2.70
2023-02-27T00:11:32.089Z,2.80
2023-02-27T00:16:34.278Z,2.70
2023-02-27T00:21:37.899Z,2.70
2023-02-27T00:26:40.451Z,2.60
2023-02-27T00:31:42.836Z,2.50
2023-02-27T00:36:46.561Z,2.40
2023-02-27T00:41:48.747Z,2.30
2023-02-27T00:46:50.934Z,2.30
2023-02-27T00:51:54.657Z,2.20
2023-02-27T00:56:56.815Z,2.20
2023-02-27T01:01:58.968Z,2.10
2023-02-27T01:07:02.526Z,2.10
2023-02-27T01:12:04.899Z,2.10
2023-02-27T01:17:07.086Z,2.10
2023-02-27T01:22:10.614Z,2.10
2023-02-27T01:27:12.729Z,2.00
2023-02-27T01:32:14.938Z,2.00
2023-02-27T01:37:18.946Z,2.00
2023-02-27T01:42:24.235Z,2.00
2023-02-27T01:47:26.403Z,2.00
2023-02-27T01:52:32.191Z,1.90
2023-02-27T01:57:34.856Z,1.90
2023-02-27T02:02:39.572Z,1.90
2023-02-27T02:07:45.682Z,1.90
2023-02-27T02:12:48.242Z,1.90
2023-02-27T02:18:00.915Z,1.90
2023-02-27T02:23:44.228Z,1.80
2023-02-27T02:29:21.561Z,1.80
2023-02-27T02:35:29.683Z,1.80
2023-02-27T02:40:39.894Z,1.70
2023-02-27T02:45:50.010Z,1.70
2023-02-27T02:51:00.380Z,1.70
2023-02-27T02:56:07.381Z,1.70
2023-02-27T03:01:12.923Z,1.60
2023-02-27T03:06:18.455Z,1.60
2023-02-27T03:11:24.962Z,1.60
2023-02-27T03:16:29.965Z,1.50
2023-02-27T03:21:38.755Z,1.50
2023-02-27T03:26:45.674Z,1.40
2023-02-27T03:31:49.831Z,1.50
2023-02-27T03:37:01.155Z,1.40
2023-02-27T03:42:14.878Z,1.40
2023-02-27T03:47:17.010Z,1.40
2023-02-27T03:52:20.993Z,1.40
2023-02-27T03:57:24.493Z,1.40
2023-02-27T04:02:27.735Z,1.30
2023-02-27T04:07:37.750Z,1.30
2023-02-27T04:13:05.553Z,1.30
2023-02-27T04:18:19.391Z,1.30
2023-02-27T04:23:32.187Z,1.30
2023-02-27T04:28:42.961Z,1.20
2023-02-27T04:33:50.459Z,1.20
2023-02-27T04:39:03.404Z,1.20
2023-02-27T04:44:10.473Z,1.20
2023-02-27T04:49:18.551Z,1.20
2023-02-27T04:54:25.890Z,1.20
2023-02-27T04:59:34.273Z,1.30
2023-02-27T05:04:39.590Z,1.30
2023-02-27T05:09:45.486Z,1.40
2023-02-27T05:14:54.297Z,1.50
2023-02-27T05:19:56.765Z,1.70
2023-02-27T05:25:04.021Z,1.80
2023-02-27T05:30:16.681Z,2.00
2023-02-27T05:35:28.982Z,2.10
2023-02-27T05:40:35.492Z,2.20
2023-02-27T05:45:42.679Z,2.30
2023-02-27T05:50:48.622Z,2.40
2023-02-27T05:55:53.535Z,2.60
2023-02-27T06:00:59.783Z,2.70
2023-02-27T06:06:05.104Z,2.80
2023-02-27T06:11:07.379Z,2.90
2023-02-27T06:16:13.472Z,2.90
2023-02-27T06:21:15.690Z,3.00
2023-02-27T06:26:18.011Z,3.10
2023-02-27T06:31:21.701Z,3.10
2023-02-27T06:36:24.602Z,3.20
2023-02-27T06:41:26.770Z,3.30
2023-02-27T06:46:30.665Z,3.40
2023-02-27T06:51:32.975Z,3.50
2023-02-27T06:56:35.228Z,3.60
2023-02-27T07:01:38.850Z,3.70
2023-02-27T07:07:36.418Z,3.70
2023-02-27T07:12:04.421Z,3.80
2023-02-27T07:17:08.114Z,4.10
2023-02-27T07:22:10.241Z,4.50
2023-02-27T07:27:12.452Z,4.70
2023-02-27T07:32:16.230Z,4.80
2023-02-27T07:37:18.465Z,4.90
2023-02-27T07:42:20.752Z,5.00
2023-02-27T07:47:27.320Z,5.20
2023-02-27T07:57:32.913Z,5.40
2023-02-27T08:02:36.506Z,5.60
2023-02-27T08:07:38.625Z,5.80
2023-02-27T08:12:40.729Z,6.10
2023-02-27T08:17:45.931Z,6.60
2023-02-27T08:22:48.208Z,7.00
2023-02-27T08:27:50.603Z,7.40
2023-02-27T08:32:54.257Z,7.80
2023-02-27T08:37:56.496Z,8.40
2023-02-27T08:42:58.727Z,9.00
2023-02-27T08:48:02.442Z,9.40
2023-02-27T08:53:04.683Z,9.80
2023-02-27T08:58:07.051Z,10.20
2023-02-27T09:03:10.601Z,10.60
2023-02-27T09:08:12.847Z,11.10
2023-02-27T09:13:15.219Z,11.50
2023-02-27T09:18:18.948Z,11.90
2023-02-27T09:23:21.153Z,12.30
2023-02-27T09:28:23.407Z,12.70
2023-02-27T09:33:29.111Z,13.20
2023-02-27T09:38:31.858Z,13.60
2023-02-27T09:43:39.380Z,14.30
2023-02-27T09:48:47.068Z,15.30
2023-02-27T09:53:51.597Z,16.20
2023-02-27T09:59:01.125Z,16.90
2023-02-27T10:04:23.624Z,17.40
2023-02-27T10:09:40.735Z,17.80
2023-02-27T10:14:45.714Z,18.10
2023-02-27T10:19:52.226Z,18.20
2023-02-27T10:25:00.404Z,18.40
2023-02-27T10:30:28.354Z,18.60
2023-02-27T10:35:35.744Z,18.80
2023-02-27T10:40:40.275Z,19.00
2023-02-27T10:45:42.563Z,19.00
2023-02-27T10:50:51.240Z,18.90
2023-02-27T10:56:02.854Z,18.50
2023-02-27T11:01:07.118Z,18.10
2023-02-27T11:06:19.807Z,17.70
2023-02-27T11:11:28.343Z,17.40
2023-02-27T11:16:49.524Z,17.10
2023-02-27T11:22:03.558Z,16.70
2023-02-27T11:27:19.308Z,16.40
2023-02-27T11:32:21.569Z,16.10
2023-02-27T11:37:31.164Z,15.80
2023-02-27T11:42:36.850Z,15.60
2023-02-27T11:47:40.457Z,15.50
2023-02-27T11:52:50.690Z,15.40
2023-02-27T11:57:56.264Z,15.30
2023-02-27T12:03:03.954Z,15.10
2023-02-27T12:08:16.358Z,14.80
2023-02-27T12:13:22.911Z,14.50
2023-02-27T12:18:30.678Z,14.40
2023-02-27T12:23:40.050Z,14.20
2023-02-27T12:28:51.508Z,14.10
2023-02-27T12:34:01.186Z,14.10
2023-02-27T12:39:05.095Z,14.10
2023-02-27T12:44:33.640Z,14.20
2023-02-27T12:49:42.917Z,14.30
2023-02-27T12:54:59.176Z,14.30
2023-02-27T13:00:09.240Z,14.40
2023-02-27T13:05:26.371Z,14.50
2023-02-27T13:10:34.855Z,14.50
2023-02-27T13:15:44.036Z,14.50
2023-02-27T13:20:49.618Z,14.40
2023-02-27T13:25:56.799Z,14.30
2023-02-27T13:31:06.786Z,14.20
2023-02-27T13:36:16.209Z,14.10
2023-02-27T13:41:49.638Z,14.10
2023-02-27T13:46:51.795Z,14.00
2023-02-27T13:51:54.718Z,14.00
2023-02-27T13:57:19.895Z,13.90
2023-02-27T14:02:52.935Z,13.80
2023-02-27T14:08:09.862Z,13.70
2023-02-27T14:13:45.217Z,13.60
2023-02-27T14:19:00.121Z,13.50
2023-02-27T14:24:02.468Z,13.40
2023-02-27T14:29:05.390Z,13.20
2023-02-27T14:34:16.233Z,12.90
2023-02-27T14:39:26.958Z,12.80
2023-02-27T14:44:37.693Z,12.80
2023-02-27T14:49:41.460Z,12.70
2023-02-27T14:54:45.248Z,12.70
2023-02-27T14:59:49.434Z,12.70
2023-02-27T15:05:11.632Z,12.70
2023-02-27T15:10:23.155Z,12.60
2023-02-27T15:15:25.429Z,12.50
2023-02-27T15:20:31.971Z,12.40
2023-02-27T15:25:37.219Z,12.30
2023-02-27T15:30:39.394Z,12.30
2023-02-27T15:35:45.317Z,12.20
2023-02-27T15:40:47.622Z,12.10
2023-02-27T15:45:50.832Z,12.00
2023-02-27T15:50:57.685Z,11.90
2023-02-27T15:56:02.497Z,11.80
2023-02-27T16:01:08.102Z,11.70
2023-02-27T16:06:18.281Z,11.60
2023-02-27T16:11:21.465Z,11.50
2023-02-27T16:16:29.160Z,11.40
2023-02-27T16:21:32.981Z,11.30
2023-02-27T16:26:36.674Z,11.20
2023-02-27T16:31:40.870Z,11.10
2023-02-27T16:36:53.891Z,10.90
2023-02-27T16:41:58.201Z,10.80
2023-02-27T16:47:00.503Z,10.80
2023-02-27T16:52:04.121Z,10.60
2023-02-27T16:57:06.457Z,10.60
2023-02-27T17:02:13.696Z,10.50
2023-02-27T17:07:17.630Z,10.40
2023-02-27T17:12:19.850Z,10.40
2023-02-27T17:17:21.990Z,10.30
2023-02-27T17:22:25.505Z,10.30
2023-02-27T17:27:27.673Z,10.20
2023-02-27T17:32:30.052Z,10.20
2023-02-27T17:37:33.642Z,10.10
2023-02-27T17:42:36.643Z,10.20
2023-02-27T17:47:38.851Z,10.20
2023-02-27T17:52:42.620Z,10.10
2023-02-27T17:57:44.766Z,10.10
2023-02-27T18:02:47.023Z,10.00
2023-02-27T18:07:50.567Z,10.00
2023-02-27T18:12:52.726Z,10.00
2023-02-27T18:17:54.792Z,10.00
2023-02-27T18:22:58.416Z,9.90
2023-02-27T18:28:00.552Z,9.80
2023-02-27T18:33:02.671Z,9.70
2023-02-27T18:38:08.079Z,9.60
2023-02-27T18:43:13.260Z,9.40
2023-02-27T18:48:17.168Z,9.30
2023-02-27T18:53:22.338Z,9.20
2023-02-27T18:58:25.573Z,9.20
2023-02-27T19:03:28.541Z,9.10
2023-02-27T19:08:32.259Z,9.10
2023-02-27T19:13:34.505Z,9.10
2023-02-27T19:18:36.735Z,9.00
2023-02-27T19:23:40.328Z,9.00
2023-02-27T19:28:42.520Z,9.00
2023-02-27T19:33:46.466Z,8.90
2023-02-27T19:38:53.882Z,8.90
2023-02-27T19:43:56.690Z,8.90
2023-02-27T19:49:01.648Z,8.80
2023-02-27T19:54:05.563Z,8.80
2023-02-27T19:59:09.582Z,8.80
2023-02-27T20:04:11.887Z,8.80
2023-02-27T20:09:17.756Z,8.80
2023-02-27T20:14:20.321Z,8.80
2023-02-27T20:19:23.175Z,8.80
2023-02-27T20:24:26.784Z,8.80
2023-02-27T20:29:28.865Z,8.70
2023-02-27T20:34:31.001Z,8.80
2023-02-27T20:39:34.553Z,8.80
2023-02-27T20:44:36.769Z,8.80
2023-02-27T20:49:38.976Z,8.80
2023-02-27T20:54:42.529Z,8.80
2023-02-27T20:59:44.634Z,8.70
2023-02-27T21:04:46.915Z,8.70
2023-02-27T21:09:50.792Z,8.70
2023-02-27T21:14:53.070Z,8.70
2023-02-27T21:19:55.308Z,8.70
2023-02-27T21:24:59.161Z,8.70
2023-02-27T21:30:01.277Z,8.70
2023-02-27T21:35:03.555Z,8.70
2023-02-27T21:40:08.328Z,8.70
2023-02-27T21:45:11.162Z,8.60
2023-02-27T21:50:13.348Z,8.60
2023-02-27T21:55:17.040Z,8.60
2023-02-27T22:00:20.667Z,8.60
2023-02-27T22:05:22.857Z,8.50
2023-02-27T22:10:26.413Z,8.30
2023-02-27T22:15:28.700Z,8.20
2023-02-27T22:20:31.184Z,8.20
2023-02-27T22:25:35.279Z,8.20
2023-02-27T22:30:37.460Z,8.20
2023-02-27T22:35:39.499Z,8.20
2023-02-27T22:40:43.052Z,8.20
2023-02-27T22:45:46.114Z,8.20
2023-02-27T22:50:57.419Z,8.20
2023-02-27T22:56:00.973Z,8.20
2023-02-27T23:01:08.629Z,8.10
2023-02-27T23:06:13.403Z,8.10
2023-02-27T23:11:19.248Z,8.00
2023-02-27T23:16:21.479Z,7.90
2023-02-27T23:21:25.614Z,7.90
2023-02-27T23:26:29.161Z,7.90
2023-02-27T23:31:34.260Z,8.00
2023-02-27T23:36:38.624Z,8.00
2023-02-27T23:41:42.188Z,7.90
2023-02-27T23:46:44.323Z,7.90
2023-02-27T23:51:46.452Z,7.90
2023-02-27T23:56:49.972Z,7.90
